Time;durP1;ratioP1;P1;durP2;ratioP2;P2;SDS_P1;SDS_P2;PMS_P1;PMS_P2;Temp;Humidity;BMP_temperature;BMP_pressure;BME280_temperature;BME280_humidity;BME280_pressure;Samples;Min_cycle;Max_cycle;Signal;HPM_P1;HPM_P2
2021/10/18 00:00:08;;;;;;;19.33;10.70;;;4.10;99.90;;;;;;5046128;28;20479;-68
2021/10/18 00:02:37;;;;;;;25.75;10.50;;;4.20;99.90;;;;;;5045147;28;20040;-68
2021/10/18 00:05:10;;;;;;;19.90;11.13;;;4.30;99.90;;;;;;5044304;28;20139;-68
2021/10/18 00:07:37;;;;;;;18.45;11.85;;;4.40;99.90;;;;;;5059673;28;20546;-67
2021/10/18 00:10:06;;;;;;;19.48;11.15;;;4.50;99.90;;;;;;5062257;28;20040;-67
2021/10/18 00:12:33;;;;;;;19.98;11.65;;;4.40;99.90;;;;;;5045029;28;20452;-67
2021/10/18 00:15:02;;;;;;;22.58;11.23;;;4.30;99.90;;;;;;5045697;28;20070;-67
2021/10/18 00:17:29;;;;;;;19.45;10.60;;;4.30;99.90;;;;;;5038483;28;20060;-67
2021/10/18 00:19:56;;;;;;;17.20;10.07;;;4.50;99.90;;;;;;5025970;28;20049;-68
2021/10/18 00:22:23;;;;;;;16.77;10.13;;;4.50;99.90;;;;;;5041615;28;20107;-68
2021/10/18 00:24:50;;;;;;;18.50;9.73;;;4.40;99.90;;;;;;5041253;28;20047;-68
2021/10/18 00:27:17;;;;;;;14.23;8.57;;;4.40;99.90;;;;;;5001354;28;20139;-68
2021/10/18 00:29:43;;;;;;;17.10;9.35;;;4.30;99.90;;;;;;5025203;28;20405;-67
2021/10/18 00:32:10;;;;;;;18.10;10.00;;;4.20;99.90;;;;;;5050291;28;20041;-67
2021/10/18 00:34:37;;;;;;;17.10;9.57;;;4.10;99.90;;;;;;5025616;28;20708;-67
2021/10/18 00:37:04;;;;;;;17.80;9.38;;;4.10;99.90;;;;;;5008077;28;20456;-67
2021/10/18 00:39:31;;;;;;;15.02;9.27;;;4.10;99.90;;;;;;5042154;28;20650;-67
2021/10/18 00:41:58;;;;;;;19.73;9.90;;;4.00;99.90;;;;;;5041712;28;20048;-67
2021/10/18 00:44:24;;;;;;;16.70;9.82;;;4.00;99.90;;;;;;5045065;28;20045;-68
2021/10/18 00:46:51;;;;;;;14.43;9.00;;;4.00;99.90;;;;;;5021636;28;20049;-67
2021/10/18 00:49:18;;;;;;;17.95;9.70;;;4.00;99.90;;;;;;5026319;28;20060;-67
2021/10/18 00:51:45;;;;;;;14.88;8.30;;;3.90;99.90;;;;;;5025663;28;20067;-68
2021/10/18 00:54:12;;;;;;;15.38;9.18;;;3.80;99.90;;;;;;5053312;28;20044;-67
2021/10/18 00:56:39;;;;;;;16.23;7.90;;;3.80;99.90;;;;;;5052944;28;20095;-67
2021/10/18 00:59:07;;;;;;;21.25;10.52;;;3.70;99.90;;;;;;5008917;28;20442;-67
2021/10/18 01:01:35;;;;;;;18.77;9.77;;;3.80;99.90;;;;;;5022401;28;20064;-67
2021/10/18 01:04:03;;;;;;;14.55;9.10;;;3.70;99.90;;;;;;5043771;28;20076;-67
2021/10/18 01:06:30;;;;;;;15.73;10.23;;;3.70;99.90;;;;;;5030377;28;20090;-66
2021/10/18 01:08:57;;;;;;;17.40;9.73;;;3.70;99.90;;;;;;5027350;28;20048;-67
2021/10/18 01:11:24;;;;;;;17.40;9.45;;;3.90;99.90;;;;;;5040013;28;20525;-67
2021/10/18 01:13:51;;;;;;;30.30;10.57;;;3.90;99.90;;;;;;4999347;28;20041;-67
2021/10/18 01:16:18;;;;;;;20.15;11.18;;;3.90;99.90;;;;;;5032854;28;20045;-68
2021/10/18 01:18:45;;;;;;;20.42;10.60;;;3.90;99.90;;;;;;5028574;28;20082;-67
2021/10/18 01:21:12;;;;;;;17.10;9.45;;;4.00;99.90;;;;;;5062969;28;20052;-67
2021/10/18 01:23:38;;;;;;;20.27;9.95;;;3.90;99.90;;;;;;5048976;28;20489;-67
2021/10/18 01:26:05;;;;;;;20.00;9.80;;;4.00;99.90;;;;;;5060249;28;20044;-67
2021/10/18 01:28:32;;;;;;;19.48;10.10;;;3.90;99.90;;;;;;5035244;28;20045;-68
2021/10/18 01:30:59;;;;;;;22.38;10.48;;;3.90;99.90;;;;;;5062009;28;20565;-67
2021/10/18 01:33:26;;;;;;;20.15;10.52;;;4.00;99.90;;;;;;5062676;28;20060;-67
2021/10/18 01:35:53;;;;;;;22.92;9.77;;;3.90;99.90;;;;;;5044558;28;20455;-67
2021/10/18 01:38:19;;;;;;;18.25;9.48;;;3.90;99.90;;;;;;5040988;28;20049;-67
2021/10/18 01:40:46;;;;;;;20.92;9.88;;;3.90;99.90;;;;;;5042701;28;20361;-67
2021/10/18 01:43:13;;;;;;;16.13;8.98;;;3.80;99.90;;;;;;5012378;28;20051;-66
2021/10/18 01:45:40;;;;;;;16.48;9.00;;;3.70;99.90;;;;;;5023542;28;20875;-67
2021/10/18 01:48:07;;;;;;;17.27;9.38;;;3.70;99.90;;;;;;5008082;28;20052;-67
2021/10/18 01:50:33;;;;;;;22.90;9.73;;;3.60;99.90;;;;;;5024942;28;20053;-66
2021/10/18 01:53:00;;;;;;;17.27;8.55;;;3.50;99.90;;;;;;5029690;28;20060;-67
2021/10/18 01:55:27;;;;;;;15.40;9.30;;;3.50;99.90;;;;;;5042422;28;20564;-66
2021/10/18 01:57:55;;;;;;;17.25;10.00;;;3.40;99.90;;;;;;5027627;28;20044;-66
2021/10/18 02:00:22;;;;;;;21.20;9.30;;;3.40;99.90;;;;;;5007237;28;20558;-67
2021/10/18 02:02:48;;;;;;;14.60;8.85;;;3.40;99.90;;;;;;5046710;28;20055;-66
2021/10/18 02:05:17;;;;;;;19.17;10.07;;;3.40;99.90;;;;;;5061703;28;20458;-67
2021/10/18 02:07:44;;;;;;;20.38;9.45;;;3.30;99.90;;;;;;5053514;28;20032;-69
2021/10/18 02:10:11;;;;;;;17.45;9.30;;;3.30;99.90;;;;;;5034821;28;20057;-66
2021/10/18 02:12:40;;;;;;;20.45;10.85;;;3.40;99.90;;;;;;5027390;28;20093;-66
2021/10/18 02:15:09;;;;;;;23.27;11.50;;;3.60;99.90;;;;;;5015148;28;20065;-66
2021/10/18 02:17:35;;;;;;;14.68;9.13;;;3.70;99.90;;;;;;5021894;28;20040;-66
2021/10/18 02:20:04;;;;;;;21.40;11.35;;;3.70;99.90;;;;;;5014044;28;20049;-67
2021/10/18 02:22:31;;;;;;;21.45;11.15;;;3.60;99.90;;;;;;5044441;28;20051;-69
2021/10/18 02:24:58;;;;;;;20.63;11.57;;;3.70;99.90;;;;;;5052640;28;20044;-69
2021/10/18 02:27:25;;;;;;;26.25;12.27;;;3.70;99.90;;;;;;5042397;28;20079;-69
2021/10/18 02:29:52;;;;;;;22.27;11.82;;;3.70;99.90;;;;;;5024544;28;20052;-66
2021/10/18 02:32:19;;;;;;;27.75;11.70;;;3.80;99.90;;;;;;5022129;28;20048;-66
2021/10/18 02:34:46;;;;;;;22.13;11.60;;;3.70;99.90;;;;;;5022543;28;20103;-67
2021/10/18 02:37:13;;;;;;;20.75;10.85;;;3.60;99.90;;;;;;5022163;28;20048;-66
2021/10/18 02:39:42;;;;;;;24.55;11.68;;;3.70;99.90;;;;;;5054915;28;20040;-66
2021/10/18 02:42:09;;;;;;;20.90;10.90;;;3.80;99.90;;;;;;5043077;28;20068;-66
2021/10/18 02:44:36;;;;;;;20.88;10.77;;;3.70;99.90;;;;;;5051088;28;20056;-67
2021/10/18 02:47:03;;;;;;;23.67;10.68;;;3.60;99.90;;;;;;5041455;28;20052;-67
2021/10/18 02:49:30;;;;;;;20.33;10.18;;;3.50;99.90;;;;;;5033584;28;20049;-67
2021/10/18 02:51:57;;;;;;;16.70;9.88;;;3.50;99.90;;;;;;5022362;28;20049;-67
2021/10/18 02:54:24;;;;;;;17.50;10.15;;;3.50;99.90;;;;;;5030223;28;20451;-67
2021/10/18 02:56:51;;;;;;;18.77;10.27;;;3.40;99.90;;;;;;5038512;28;20634;-67
2021/10/18 02:59:17;;;;;;;17.70;9.25;;;3.30;99.90;;;;;;5021632;28;20029;-67
2021/10/18 03:01:44;;;;;;;19.33;9.07;;;3.40;99.90;;;;;;5037736;28;20497;-67
2021/10/18 03:04:12;;;;;;;20.33;9.93;;;3.30;99.90;;;;;;5037849;28;20525;-67
2021/10/18 03:06:39;;;;;;;17.50;9.70;;;3.20;99.90;;;;;;5009138;28;20060;-67
2021/10/18 03:09:06;;;;;;;16.70;9.40;;;3.20;99.90;;;;;;5039464;28;20087;-67
2021/10/18 03:11:33;;;;;;;20.10;9.75;;;3.20;99.90;;;;;;5020603;28;20095;-67
2021/10/18 03:14:00;;;;;;;18.45;9.93;;;3.20;99.90;;;;;;5052556;28;20041;-67
2021/10/18 03:16:28;;;;;;;18.05;9.65;;;3.20;99.90;;;;;;5021300;28;20041;-66
2021/10/18 03:18:55;;;;;;;20.60;10.60;;;3.20;99.90;;;;;;5021394;28;20107;-67
2021/10/18 03:21:22;;;;;;;22.40;10.30;;;3.30;99.90;;;;;;5054569;28;20056;-68
2021/10/18 03:23:49;;;;;;;21.45;10.60;;;3.30;99.90;;;;;;5054990;28;20118;-67
2021/10/18 03:26:16;;;;;;;14.98;10.48;;;3.60;99.90;;;;;;5009999;28;20051;-67
2021/10/18 03:28:43;;;;;;;21.00;10.45;;;3.60;99.90;;;;;;5037870;28;20513;-66
2021/10/18 03:31:11;;;;;;;22.73;11.18;;;3.70;99.90;;;;;;5031945;28;20475;-67
2021/10/18 03:33:43;;;;;;;19.38;11.20;;;3.70;99.90;;;;;;5060048;28;20338;-67
2021/10/18 03:36:10;;;;;;;22.55;10.98;;;3.70;99.90;;;;;;5041341;28;20055;-67
2021/10/18 03:38:37;;;;;;;19.50;11.18;;;3.70;99.90;;;;;;5058388;28;20059;-67
2021/10/18 03:41:04;;;;;;;24.85;11.77;;;3.80;99.90;;;;;;5050992;28;20044;-67
2021/10/18 03:43:31;;;;;;;21.75;11.80;;;3.90;99.90;;;;;;5034159;28;20117;-67
2021/10/18 03:46:00;;;;;;;19.35;10.40;;;3.80;99.90;;;;;;5014798;28;20336;-66
2021/10/18 03:48:27;;;;;;;17.85;10.23;;;3.90;99.90;;;;;;5043181;28;20103;-67
2021/10/18 03:50:54;;;;;;;16.15;10.35;;;3.90;99.90;;;;;;5041524;28;20068;-67
2021/10/18 03:53:20;;;;;;;18.15;10.35;;;3.90;99.90;;;;;;5058558;28;20135;-66
2021/10/18 03:55:48;;;;;;;15.88;9.88;;;4.00;99.90;;;;;;5037920;28;20045;-66
2021/10/18 03:58:15;;;;;;;20.35;10.00;;;4.00;99.90;;;;;;5020083;28;20420;-68
2021/10/18 04:00:42;;;;;;;15.32;9.45;;;4.00;99.90;;;;;;5036690;28;20049;-67
2021/10/18 04:03:09;;;;;;;18.08;9.85;;;4.10;99.90;;;;;;5022258;28;20454;-67
2021/10/18 04:05:36;;;;;;;15.23;9.77;;;4.30;99.90;;;;;;5034702;28;20120;-66
2021/10/18 04:08:03;;;;;;;15.02;9.25;;;4.20;99.90;;;;;;5004702;28;20087;-67
2021/10/18 04:10:32;;;;;;;16.08;9.77;;;4.10;99.90;;;;;;5005032;28;20064;-67
2021/10/18 04:13:02;;;;;;;17.45;9.80;;;4.10;99.90;;;;;;5020269;28;20057;-67
2021/10/18 04:15:29;;;;;;;14.25;9.52;;;4.20;99.90;;;;;;5037057;28;20048;-66
2021/10/18 04:17:56;;;;;;;15.15;9.15;;;4.20;99.90;;;;;;5057404;28;20302;-67
2021/10/18 04:20:23;;;;;;;14.85;9.55;;;4.30;99.90;;;;;;5023566;28;20507;-67
2021/10/18 04:22:50;;;;;;;18.77;9.27;;;4.40;99.90;;;;;;5047629;28;20057;-66
2021/10/18 04:25:17;;;;;;;16.50;9.27;;;4.60;99.90;;;;;;5030005;28;20056;-67
2021/10/18 04:27:44;;;;;;;14.30;9.40;;;4.50;99.90;;;;;;5028297;28;20545;-67
2021/10/18 04:30:11;;;;;;;16.33;9.00;;;4.50;99.90;;;;;;5049457;28;20512;-67
2021/10/18 04:32:38;;;;;;;17.75;8.93;;;4.40;99.90;;;;;;5033370;28;20049;-66
2021/10/18 04:35:06;;;;;;;18.58;9.02;;;4.40;99.90;;;;;;5038295;28;20048;-67
2021/10/18 04:37:33;;;;;;;15.73;8.45;;;4.40;99.90;;;;;;5020552;28;20041;-67
2021/10/18 04:39:59;;;;;;;16.42;9.40;;;4.40;99.90;;;;;;5032400;28;20052;-67
2021/10/18 04:42:26;;;;;;;15.27;8.90;;;4.50;99.90;;;;;;5040758;28;20041;-67
2021/10/18 04:44:53;;;;;;;18.13;10.00;;;4.40;99.90;;;;;;5041693;28;20037;-67
2021/10/18 04:47:20;;;;;;;15.35;8.80;;;4.50;99.90;;;;;;5057861;28;20071;-66
2021/10/18 04:49:47;;;;;;;18.02;8.80;;;4.40;99.90;;;;;;5044266;28;20049;-67
2021/10/18 04:52:14;;;;;;;18.38;8.50;;;4.40;99.90;;;;;;5044056;28;20048;-66
2021/10/18 04:54:40;;;;;;;13.32;8.55;;;4.50;99.90;;;;;;5046429;28;20544;-67
2021/10/18 04:57:07;;;;;;;13.68;7.85;;;4.50;99.90;;;;;;5029604;28;20037;-67
2021/10/18 04:59:34;;;;;;;17.80;8.90;;;4.40;99.90;;;;;;5040873;28;20230;-66
2021/10/18 05:02:01;;;;;;;14.57;7.65;;;4.40;99.90;;;;;;5034685;28;20052;-67
2021/10/18 05:04:28;;;;;;;15.75;8.98;;;4.60;99.90;;;;;;5029885;28;20045;-67
2021/10/18 05:06:55;;;;;;;14.60;8.57;;;4.50;99.90;;;;;;5048683;28;20048;-67
2021/10/18 05:09:23;;;;;;;15.68;8.38;;;4.40;99.90;;;;;;5072809;22;20044;-81
2021/10/18 05:11:50;;;;;;;23.20;9.05;;;4.40;99.90;;;;;;5042384;28;20075;-82
2021/10/18 05:14:17;;;;;;;16.15;9.05;;;4.50;99.90;;;;;;5055818;28;20045;-80
2021/10/18 05:16:44;;;;;;;13.88;7.75;;;4.60;99.90;;;;;;5043030;28;20044;-80
2021/10/18 05:19:11;;;;;;;18.15;10.13;;;4.60;99.90;;;;;;5029849;28;20037;-81
2021/10/18 05:21:37;;;;;;;15.20;9.63;;;4.50;99.90;;;;;;5058222;28;20095;-80
2021/10/18 05:24:04;;;;;;;21.08;10.00;;;4.50;99.90;;;;;;5058837;28;20046;-81
2021/10/18 05:26:31;;;;;;;19.25;9.63;;;4.60;99.90;;;;;;5058111;28;20059;-81
2021/10/18 05:28:58;;;;;;;20.40;10.43;;;4.70;99.90;;;;;;5058188;28;20055;-81
2021/10/18 05:31:25;;;;;;;17.58;9.88;;;4.80;99.90;;;;;;5039135;28;20050;-81
2021/10/18 05:33:52;;;;;;;14.75;9.13;;;4.70;99.90;;;;;;5059879;28;20079;-81
2021/10/18 05:36:19;;;;;;;15.38;8.95;;;4.70;99.90;;;;;;5040484;28;20047;-80
2021/10/18 05:38:46;;;;;;;13.57;8.65;;;4.60;99.90;;;;;;5037755;28;20123;-81
2021/10/18 05:41:13;;;;;;;19.23;9.73;;;4.50;99.90;;;;;;5033538;28;20048;-81
2021/10/18 05:43:40;;;;;;;16.33;9.68;;;4.50;99.90;;;;;;5059233;28;20056;-83
2021/10/18 05:46:07;;;;;;;16.75;9.30;;;4.60;99.90;;;;;;5051896;28;20067;-81
2021/10/18 05:48:36;;;;;;;17.60;10.15;;;4.60;99.90;;;;;;5035028;28;20124;-81
2021/10/18 05:51:03;;;;;;;20.75;10.00;;;4.70;99.90;;;;;;5023460;28;20041;-80
2021/10/18 05:53:30;;;;;;;20.63;11.05;;;5.00;99.90;;;;;;5022741;28;20115;-81
2021/10/18 05:55:57;;;;;;;21.73;10.88;;;5.00;99.90;;;;;;5022470;28;20079;-81
2021/10/18 05:58:24;;;;;;;20.02;10.43;;;4.90;99.90;;;;;;5054685;28;20098;-80
2021/10/18 06:00:51;;;;;;;18.85;9.98;;;4.80;99.90;;;;;;5042260;28;20158;-80
2021/10/18 06:03:18;;;;;;;14.68;8.18;;;4.80;99.90;;;;;;5060314;28;20524;-81
2021/10/18 06:05:46;;;;;;;16.75;9.23;;;4.80;99.90;;;;;;5038490;28;20048;-80
2021/10/18 06:08:34;;;;;;;16.58;9.20;;;4.90;99.90;;;;;;5045057;28;20075;-82
2021/10/18 06:11:03;;;;;;;20.38;10.82;;;5.00;99.90;;;;;;5047719;28;20048;-81
2021/10/18 06:13:31;;;;;;;23.05;11.85;;;5.00;99.90;;;;;;5053048;28;20056;-82
2021/10/18 06:15:58;;;;;;;20.00;10.10;;;5.00;99.90;;;;;;5047766;28;20036;-81
2021/10/18 06:18:25;;;;;;;14.98;10.05;;;4.90;99.90;;;;;;5043947;28;20033;-81
2021/10/18 06:20:55;;;;;;;21.02;10.55;;;5.00;99.90;;;;;;5053692;28;20137;-81
2021/10/18 06:23:23;;;;;;;20.40;10.65;;;5.10;99.90;;;;;;5036719;28;20369;-80
2021/10/18 06:25:51;;;;;;;31.02;14.68;;;5.10;99.90;;;;;;5037087;28;20105;-81
2021/10/18 06:28:19;;;;;;;25.13;13.98;;;5.20;99.90;;;;;;5025509;28;20424;-81
2021/10/18 06:30:48;;;;;;;24.33;13.23;;;5.20;99.90;;;;;;5035354;28;20029;-81
2021/10/18 06:33:19;;;;;;;21.17;14.73;;;5.30;99.90;;;;;;5048592;28;20114;-80
2021/10/18 06:35:50;;;;;;;27.17;15.20;;;5.40;99.90;;;;;;5071311;28;20055;-81
2021/10/18 06:38:21;;;;;;;31.83;15.10;;;5.50;99.90;;;;;;5067857;28;20163;-80
2021/10/18 06:40:51;;;;;;;28.92;16.95;;;5.50;99.90;;;;;;5034931;28;20107;-81
2021/10/18 06:43:19;;;;;;;25.33;15.05;;;5.60;99.90;;;;;;5042542;28;20047;-82
2021/10/18 06:45:48;;;;;;;24.77;14.40;;;5.60;99.90;;;;;;5046813;28;20044;-79
2021/10/18 06:48:16;;;;;;;20.90;12.98;;;5.70;99.90;;;;;;5039175;28;20048;-81
2021/10/18 06:50:45;;;;;;;21.73;12.43;;;5.70;99.90;;;;;;5032786;28;20040;-81
2021/10/18 06:53:17;;;;;;;22.83;11.85;;;5.70;99.90;;;;;;5044836;28;20108;-81
2021/10/18 06:55:45;;;;;;;15.77;10.23;;;5.70;99.90;;;;;;5043485;28;20052;-81
2021/10/18 06:58:12;;;;;;;17.73;11.18;;;5.70;99.90;;;;;;5040159;28;20102;-81
2021/10/18 07:00:41;;;;;;;20.30;11.23;;;5.70;99.90;;;;;;5033451;28;20108;-79
2021/10/18 07:03:09;;;;;;;19.17;10.77;;;5.70;99.90;;;;;;5042279;28;20524;-80
2021/10/18 07:05:35;;;;;;;19.67;11.98;;;5.80;99.90;;;;;;5057142;28;20499;-80
2021/10/18 07:08:03;;;;;;;22.40;13.35;;;5.70;99.90;;;;;;5038278;28;20561;-81
2021/10/18 07:10:30;;;;;;;19.00;12.02;;;5.70;99.90;;;;;;5045893;28;20665;-81
2021/10/18 07:12:57;;;;;;;20.95;12.23;;;5.70;99.90;;;;;;5046994;28;20044;-81
2021/10/18 07:15:24;;;;;;;26.15;13.85;;;5.70;99.90;;;;;;5052915;28;20067;-81
2021/10/18 07:17:53;;;;;;;18.83;12.05;;;5.70;99.90;;;;;;5060518;28;20109;-81
2021/10/18 07:20:21;;;;;;;23.80;13.90;;;5.90;99.90;;;;;;5054592;28;20492;-80
2021/10/18 07:22:49;;;;;;;21.70;12.88;;;6.00;99.90;;;;;;5043100;28;20044;-82
2021/10/18 07:25:20;;;;;;;18.77;12.40;;;6.00;99.90;;;;;;5076288;28;20336;-81
2021/10/18 07:27:48;;;;;;;24.45;12.38;;;5.90;99.90;;;;;;5058221;28;20047;-81
2021/10/18 07:30:19;;;;;;;22.42;13.90;;;6.10;99.90;;;;;;5044071;28;20082;-81
2021/10/18 07:32:46;;;;;;;19.45;13.40;;;6.20;99.90;;;;;;5047417;28;20462;-80
2021/10/18 07:35:15;;;;;;;25.50;14.77;;;6.10;99.90;;;;;;5024269;28;20044;-80
2021/10/18 07:37:47;;;;;;;23.88;13.48;;;6.20;99.90;;;;;;5033856;28;20055;-80
2021/10/18 07:40:14;;;;;;;19.17;13.10;;;6.40;99.90;;;;;;5046194;28;20040;-80
2021/10/18 07:42:42;;;;;;;22.20;12.70;;;6.40;99.90;;;;;;5043967;28;20080;-80
2021/10/18 07:45:10;;;;;;;14.90;11.32;;;6.50;99.90;;;;;;5037153;28;20057;-79
2021/10/18 07:47:38;;;;;;;21.90;11.63;;;6.60;99.90;;;;;;5062703;28;20599;-78
2021/10/18 07:50:10;;;;;;;16.38;11.60;;;6.80;99.90;;;;;;5053799;28;20048;-78
2021/10/18 07:52:38;;;;;;;15.77;10.27;;;6.90;99.90;;;;;;5072746;28;20044;-81
2021/10/18 07:55:12;;;;;;;13.55;9.30;;;7.20;99.90;;;;;;5059046;28;20036;-81
2021/10/18 07:57:44;;;;;;;11.50;7.95;;;7.40;99.90;;;;;;5031303;28;20051;-82
2021/10/18 08:00:12;;;;;;;14.57;7.47;;;7.70;99.90;;;;;;5038983;28;20085;-80
2021/10/18 08:02:39;;;;;;;13.02;6.50;;;8.00;99.90;;;;;;5060319;28;20169;-78
2021/10/18 08:05:08;;;;;;;15.10;5.20;;;8.20;99.90;;;;;;5053916;28;20044;-80
2021/10/18 08:07:40;;;;;;;10.15;6.22;;;8.60;99.90;;;;;;5055297;28;20053;-82
2021/10/18 08:10:24;;;;;;;8.65;5.85;;;9.00;99.90;;;;;;5047644;23;20053;-69
2021/10/18 08:12:56;;;;;;;9.82;5.40;;;9.50;99.90;;;;;;5021878;28;20099;-68
2021/10/18 08:15:30;;;;;;;6.95;6.25;;;10.00;99.90;;;;;;4987024;28;20049;-69
2021/10/18 08:18:02;;;;;;;9.27;6.22;;;10.40;99.90;;;;;;5009803;28;20139;-70
2021/10/18 08:20:38;;;;;;;9.77;6.85;;;10.80;99.90;;;;;;4972208;28;20041;-68
2021/10/18 08:23:07;;;;;;;21.75;13.18;;;11.20;99.90;;;;;;5022486;28;20505;-71
2021/10/18 08:25:41;;;;;;;9.18;7.38;;;11.50;99.90;;;;;;4988250;28;20049;-70
2021/10/18 08:28:13;;;;;;;11.02;7.90;;;11.70;99.90;;;;;;5036118;28;20056;-70
2021/10/18 08:30:46;;;;;;;9.63;8.73;;;11.90;99.90;;;;;;5042925;28;20141;-69
2021/10/18 08:33:17;;;;;;;9.02;8.10;;;11.90;99.90;;;;;;5043467;28;20041;-68
2021/10/18 08:35:47;;;;;;;10.38;9.25;;;11.90;99.90;;;;;;5041696;28;20529;-69
2021/10/18 08:38:21;;;;;;;8.70;8.02;;;11.90;99.90;;;;;;5042732;28;20087;-69
2021/10/18 08:45:58;;;;;;;18.13;9.65;;;11.90;99.90;;;;;;5033060;22;20029;-82
2021/10/18 08:48:51;;;;;;;9.73;8.95;;;11.90;99.90;;;;;;5062847;28;20529;-82
2021/10/18 08:51:19;;;;;;;10.20;9.25;;;11.70;99.90;;;;;;5073422;28;20102;-82
2021/10/18 08:53:47;;;;;;;10.70;9.63;;;11.80;99.90;;;;;;5024997;28;20056;-80
2021/10/18 08:56:15;;;;;;;10.07;9.27;;;11.80;99.90;;;;;;5041047;28;20051;-82
2021/10/18 08:58:41;;;;;;;10.00;9.18;;;11.90;99.90;;;;;;5028460;28;20037;-81
2021/10/18 09:01:09;;;;;;;11.05;9.93;;;11.90;99.90;;;;;;5028048;28;20046;-78
2021/10/18 09:03:39;;;;;;;11.30;10.35;;;11.90;99.90;;;;;;4985008;28;20069;-81
2021/10/18 09:06:14;;;;;;;11.40;10.52;;;11.90;99.90;;;;;;4998678;28;20048;-81
2021/10/18 09:08:44;;;;;;;13.00;11.03;;;11.90;99.90;;;;;;5028972;28;20046;-80
2021/10/18 09:11:17;;;;;;;12.65;11.48;;;12.00;99.90;;;;;;4990110;28;20289;-81
2021/10/18 09:14:12;;;;;;;;;;;;;;;;;;;;;
2021/10/18 09:16:44;;;;;;;12.43;11.45;;;12.30;99.90;;;;;;5024378;28;20053;-81
2021/10/18 09:19:22;;;;;;;11.80;10.77;;;12.40;99.90;;;;;;5036641;28;20409;-82
2021/10/18 09:22:03;;;;;;;12.30;11.38;;;12.40;99.90;;;;;;5019726;28;20045;-81
2021/10/18 09:24:33;;;;;;;11.85;11.05;;;12.50;99.90;;;;;;5020169;28;20049;-82
2021/10/18 09:27:08;;;;;;;12.65;11.60;;;12.70;99.90;;;;;;5042490;28;20057;-83
2021/10/18 09:29:46;;;;;;;11.63;10.93;;;12.90;99.90;;;;;;5001984;28;20233;-84
2021/10/18 09:32:26;;;;;;;12.70;11.85;;;12.80;99.90;;;;;;5000962;28;20034;-81
2021/10/18 09:35:17;;;;;;;12.45;11.55;;;12.70;99.90;;;;;;5012067;28;20081;-83
2021/10/18 09:37:45;;;;;;;12.75;11.73;;;12.70;99.90;;;;;;5015699;28;20553;-83
2021/10/18 09:40:30;;;;;;;12.70;11.65;;;12.60;99.90;;;;;;5020399;28;20033;-81
2021/10/18 09:43:46;;;;;;;12.45;11.23;;;12.50;99.90;;;;;;5017864;28;20110;-83
2021/10/18 09:46:24;;;;;;;13.23;12.32;;;12.70;99.90;;;;;;5038264;28;20417;-82
2021/10/18 10:52:40;;;;;;;14.40;13.30;;;13.80;99.90;;;;;;5016558;28;20069;-85
2021/10/18 10:55:32;;;;;;;13.85;12.52;;;13.90;99.90;;;;;;5031656;28;20125;-82
2021/10/18 10:58:03;;;;;;;13.90;12.57;;;14.00;99.90;;;;;;5013451;28;20136;-81
2021/10/18 11:00:42;;;;;;;14.23;12.88;;;14.00;99.90;;;;;;5014771;28;20501;-83
2021/10/18 11:03:23;;;;;;;12.63;11.88;;;14.20;99.90;;;;;;5045492;28;20057;-82
2021/10/18 11:06:13;;;;;;;13.15;12.15;;;14.20;99.90;;;;;;5003807;28;20046;-83
2021/10/18 11:08:46;;;;;;;13.68;12.45;;;14.40;99.90;;;;;;5026971;28;20060;-81
2021/10/18 11:11:23;;;;;;;13.70;12.77;;;14.40;99.90;;;;;;4995982;28;20103;-83
2021/10/18 11:13:55;;;;;;;14.02;12.85;;;14.20;99.90;;;;;;5030273;28;20078;-82
2021/10/18 11:16:24;;;;;;;12.98;11.82;;;14.10;99.90;;;;;;5006166;28;20063;-81
2021/10/18 11:18:57;;;;;;;15.05;13.55;;;14.10;99.90;;;;;;5000958;28;20072;-82
2021/10/18 11:21:39;;;;;;;14.40;13.25;;;14.10;99.90;;;;;;5019653;28;20042;-81
2021/10/18 11:24:12;;;;;;;13.52;12.63;;;14.20;99.90;;;;;;5020387;28;20041;-84
2021/10/18 11:26:44;;;;;;;13.40;12.02;;;14.20;99.90;;;;;;5015731;28;20045;-81
2021/10/18 11:29:12;;;;;;;12.55;11.52;;;14.30;99.90;;;;;;4998171;28;20049;-83
2021/10/18 11:31:41;;;;;;;13.18;12.05;;;14.30;99.90;;;;;;5011341;28;20037;-82
2021/10/18 11:34:11;;;;;;;13.88;12.88;;;14.20;99.90;;;;;;4999226;28;20477;-83
2021/10/18 11:36:43;;;;;;;13.40;12.35;;;14.20;99.90;;;;;;5014403;28;20064;-84
2021/10/18 11:39:13;;;;;;;13.73;12.10;;;14.20;99.90;;;;;;4996941;28;20033;-83
2021/10/18 11:41:58;;;;;;;13.25;12.15;;;14.20;99.90;;;;;;5004717;28;20029;-82
2021/10/18 11:44:49;;;;;;;13.38;12.15;;;14.20;99.90;;;;;;5029877;28;20053;-82
2021/10/18 11:47:23;;;;;;;14.40;13.30;;;14.30;99.90;;;;;;5039122;28;20335;-85
2021/10/18 11:50:14;;;;;;;13.40;12.15;;;14.40;99.90;;;;;;5037916;28;20054;-83
2021/10/18 11:53:09;;;;;;;13.65;12.50;;;14.50;99.90;;;;;;5004250;28;20052;-82
2021/10/18 11:55:39;;;;;;;12.50;11.50;;;14.60;99.90;;;;;;5023250;28;20564;-82
2021/10/18 11:58:06;;;;;;;13.55;12.35;;;14.60;99.90;;;;;;5033388;28;20041;-82
2021/10/18 12:01:08;;;;;;;14.13;12.90;;;14.60;99.90;;;;;;5006576;28;20042;-84
2021/10/18 12:03:43;;;;;;;12.57;11.73;;;14.50;99.90;;;;;;5008034;28;20056;-82
2021/10/18 12:06:12;;;;;;;12.68;11.70;;;14.40;99.90;;;;;;4998621;28;20045;-81
2021/10/18 12:08:43;;;;;;;12.57;11.68;;;14.50;99.90;;;;;;4997156;28;20473;-85
2021/10/18 12:11:18;;;;;;;13.27;11.65;;;14.30;99.90;;;;;;5003817;28;20054;-82
2021/10/18 12:13:51;;;;;;;11.90;11.00;;;14.40;99.90;;;;;;5009993;28;20038;-84
2021/10/18 12:16:49;;;;;;;12.07;11.20;;;14.50;99.90;;;;;;5009398;28;20060;-82
2021/10/18 12:19:16;;;;;;;13.23;12.10;;;14.50;99.90;;;;;;5036027;28;20110;-82
2021/10/18 12:21:45;;;;;;;13.20;12.07;;;14.70;99.90;;;;;;5008296;28;20045;-81
2021/10/18 12:24:14;;;;;;;12.73;11.70;;;14.90;99.90;;;;;;5026533;28;20041;-83
2021/10/18 12:27:03;;;;;;;13.05;12.05;;;15.10;99.90;;;;;;5003349;28;20042;-85
2021/10/18 12:30:39;;;;;;;13.20;11.95;;;15.20;99.90;;;;;;5019238;28;20125;-82
2021/10/18 12:33:12;;;;;;;12.73;11.90;;;15.30;99.90;;;;;;4970412;28;20045;-83
2021/10/18 12:35:39;;;;;;;18.55;16.95;;;15.10;99.90;;;;;;4986147;28;20034;-79
2021/10/18 12:38:11;;;;;;;13.30;12.05;;;15.10;99.90;;;;;;4963943;28;20045;-81
2021/10/18 12:40:41;;;;;;;11.70;11.00;;;14.90;99.90;;;;;;4976687;28;20046;-82
2021/10/18 12:43:26;;;;;;;11.93;10.93;;;14.80;99.90;;;;;;4994664;28;20113;-84
2021/10/18 12:45:53;;;;;;;13.25;11.88;;;14.90;99.90;;;;;;4995659;28;20531;-82
2021/10/18 12:48:23;;;;;;;12.32;11.43;;;14.80;99.90;;;;;;5010071;28;20097;-80
2021/10/18 12:50:51;;;;;;;12.98;11.88;;;14.60;99.90;;;;;;5005876;28;20077;-83
2021/10/18 12:53:30;;;;;;;12.30;11.30;;;14.60;99.90;;;;;;4989234;28;20037;-85
2021/10/18 12:56:00;;;;;;;13.20;12.32;;;14.70;99.90;;;;;;4998640;28;20207;-83
2021/10/18 12:58:27;;;;;;;12.35;11.50;;;14.80;99.90;;;;;;4991860;28;20045;-81
2021/10/18 13:00:54;;;;;;;13.85;12.60;;;15.10;99.90;;;;;;5005667;28;20034;-81
2021/10/18 13:03:23;;;;;;;13.73;12.52;;;15.30;99.90;;;;;;5001722;28;20156;-83
2021/10/18 13:06:19;;;;;;;12.68;11.75;;;15.10;99.90;;;;;;5000052;28;20045;-82
2021/10/18 13:08:46;;;;;;;13.30;12.27;;;14.80;99.90;;;;;;5011464;28;20050;-83
2021/10/18 13:11:12;;;;;;;13.45;12.20;;;14.70;99.90;;;;;;4997901;28;20109;-85
2021/10/18 13:13:51;;;;;;;13.60;12.45;;;14.80;99.90;;;;;;5039325;28;20117;-82
2021/10/18 13:16:18;;;;;;;13.88;12.80;;;14.90;99.90;;;;;;5023926;28;20029;-81
2021/10/18 13:18:47;;;;;;;13.88;12.75;;;14.90;99.90;;;;;;5004511;28;20072;-83
2021/10/18 13:21:14;;;;;;;14.73;13.35;;;14.60;99.90;;;;;;5026641;28;20033;-84
2021/10/18 13:23:40;;;;;;;14.35;13.10;;;14.50;99.90;;;;;;5042765;28;20088;-82
2021/10/18 13:26:07;;;;;;;15.00;13.13;;;14.60;99.90;;;;;;5012879;28;20044;-82
2021/10/18 13:28:34;;;;;;;15.32;13.93;;;14.70;99.90;;;;;;5029432;28;20056;-83
2021/10/18 13:31:01;;;;;;;15.75;14.18;;;14.70;99.90;;;;;;5021572;28;20053;-82
2021/10/18 13:33:28;;;;;;;16.30;14.60;;;14.50;99.90;;;;;;5020949;28;20148;-80
2021/10/18 13:35:55;;;;;;;14.68;13.20;;;14.30;99.90;;;;;;5042860;28;20045;-82
2021/10/18 13:38:22;;;;;;;16.30;14.65;;;14.20;99.90;;;;;;4991995;28;20480;-82
2021/10/18 13:40:49;;;;;;;16.38;14.45;;;14.30;99.90;;;;;;5039269;28;20052;-86
2021/10/18 13:43:16;;;;;;;16.73;15.00;;;14.40;99.90;;;;;;5013958;28;20053;-85
2021/10/18 13:45:43;;;;;;;15.70;14.23;;;14.40;99.90;;;;;;5040787;28;20107;-84
2021/10/18 13:48:12;;;;;;;16.67;15.20;;;14.10;99.90;;;;;;5022221;28;20057;-82
2021/10/18 13:50:40;;;;;;;15.30;13.90;;;14.10;99.90;;;;;;5013758;28;20050;-82
2021/10/18 13:53:07;;;;;;;16.58;14.88;;;14.10;99.90;;;;;;5018556;28;20049;-86
2021/10/18 13:55:34;;;;;;;18.42;14.90;;;14.20;99.90;;;;;;4999278;28;20068;-82
2021/10/18 13:58:01;;;;;;;20.27;16.38;;;14.00;99.90;;;;;;4997556;28;20938;-80
2021/10/18 14:00:28;;;;;;;16.35;14.65;;;14.10;99.90;;;;;;4998174;28;20056;-81